sensor_id;sensor_type;location;lat;lon;timestamp;P1;durP1;ratioP1;P2;durP2;ratioP2
53654;SDS011;39558;52.028;8.536;2022-11-03T00:01:38;3.47;;;1.45;;
53654;SDS011;39558;52.028;8.536;2022-11-03T00:04:04;3.55;;;1.17;;
53654;SDS011;39558;52.028;8.536;2022-11-03T00:06:31;2.65;;;1.13;;
53654;SDS011;39558;52.028;8.536;2022-11-03T00:09:00;4.47;;;1.50;;
53654;SDS011;39558;52.028;8.536;2022-11-03T00:11:27;3.55;;;1.40;;
53654;SDS011;39558;52.028;8.536;2022-11-03T00:13:52;3.75;;;1.52;;
53654;SDS011;39558;52.028;8.536;2022-11-03T00:16:19;4.07;;;1.67;;
53654;SDS011;39558;52.028;8.536;2022-11-03T00:18:45;4.03;;;1.58;;
53654;SDS011;39558;52.028;8.536;2022-11-03T00:21:11;3.65;;;1.70;;
53654;SDS011;39558;52.028;8.536;2022-11-03T00:23:41;3.13;;;1.30;;
53654;SDS011;39558;52.028;8.536;2022-11-03T00:26:14;3.17;;;1.30;;
53654;SDS011;39558;52.028;8.536;2022-11-03T00:28:41;5.47;;;1.30;;
53654;SDS011;39558;52.028;8.536;2022-11-03T00:31:12;4.63;;;1.80;;
53654;SDS011;39558;52.028;8.536;2022-11-03T00:33:38;4.15;;;1.50;;
53654;SDS011;39558;52.028;8.536;2022-11-03T00:36:05;3.05;;;1.27;;
53654;SDS011;39558;52.028;8.536;2022-11-03T00:38:31;3.80;;;1.60;;
53654;SDS011;39558;52.028;8.536;2022-11-03T00:40:58;4.55;;;1.77;;
53654;SDS011;39558;52.028;8.536;2022-11-03T00:43:24;3.50;;;1.73;;
53654;SDS011;39558;52.028;8.536;2022-11-03T00:45:51;3.92;;;1.48;;
53654;SDS011;39558;52.028;8.536;2022-11-03T00:48:17;2.53;;;1.27;;
53654;SDS011;39558;52.028;8.536;2022-11-03T00:51:00;4.90;;;1.20;;
53654;SDS011;39558;52.028;8.536;2022-11-03T00:53:27;3.90;;;1.27;;
53654;SDS011;39558;52.028;8.536;2022-11-03T00:55:53;3.15;;;1.38;;
53654;SDS011;39558;52.028;8.536;2022-11-03T00:58:19;2.60;;;1.10;;
53654;SDS011;39558;52.028;8.536;2022-11-03T01:00:45;4.22;;;1.27;;
53654;SDS011;39558;52.028;8.536;2022-11-03T01:03:10;3.20;;;1.27;;
53654;SDS011;39558;52.028;8.536;2022-11-03T01:05:40;3.35;;;1.48;;
53654;SDS011;39558;52.028;8.536;2022-11-03T01:08:25;3.78;;;1.60;;
53654;SDS011;39558;52.028;8.536;2022-11-03T01:11:02;3.88;;;1.45;;
53654;SDS011;39558;52.028;8.536;2022-11-03T01:13:47;3.17;;;1.20;;
53654;SDS011;39558;52.028;8.536;2022-11-03T01:16:13;2.92;;;1.08;;
53654;SDS011;39558;52.028;8.536;2022-11-03T01:18:39;2.83;;;1.35;;
53654;SDS011;39558;52.028;8.536;2022-11-03T01:21:05;3.17;;;1.10;;
53654;SDS011;39558;52.028;8.536;2022-11-03T01:23:31;2.67;;;1.20;;
53654;SDS011;39558;52.028;8.536;2022-11-03T01:26:02;3.65;;;1.30;;
53654;SDS011;39558;52.028;8.536;2022-11-03T01:28:28;3.47;;;1.35;;
53654;SDS011;39558;52.028;8.536;2022-11-03T01:30:54;2.42;;;1.20;;
53654;SDS011;39558;52.028;8.536;2022-11-03T01:33:20;3.25;;;1.40;;
53654;SDS011;39558;52.028;8.536;2022-11-03T01:35:46;3.47;;;1.40;;
53654;SDS011;39558;52.028;8.536;2022-11-03T01:38:17;3.70;;;1.15;;
53654;SDS011;39558;52.028;8.536;2022-11-03T01:40:43;4.18;;;1.20;;
53654;SDS011;39558;52.028;8.536;2022-11-03T01:43:16;3.95;;;1.20;;
53654;SDS011;39558;52.028;8.536;2022-11-03T01:45:42;2.67;;;1.30;;
53654;SDS011;39558;52.028;8.536;2022-11-03T01:48:08;3.85;;;1.45;;
53654;SDS011;39558;52.028;8.536;2022-11-03T01:50:36;3.35;;;1.10;;
53654;SDS011;39558;52.028;8.536;2022-11-03T01:53:02;3.00;;;1.08;;
53654;SDS011;39558;52.028;8.536;2022-11-03T01:55:28;3.97;;;1.40;;
53654;SDS011;39558;52.028;8.536;2022-11-03T02:00:29;2.95;;;1.05;;
53654;SDS011;39558;52.028;8.536;2022-11-03T02:02:55;2.72;;;1.27;;
53654;SDS011;39558;52.028;8.536;2022-11-03T02:05:21;3.70;;;1.15;;
53654;SDS011;39558;52.028;8.536;2022-11-03T02:07:49;2.65;;;1.17;;
53654;SDS011;39558;52.028;8.536;2022-11-03T02:10:18;3.73;;;1.27;;
53654;SDS011;39558;52.028;8.536;2022-11-03T02:12:44;2.58;;;0.93;;
53654;SDS011;39558;52.028;8.536;2022-11-03T02:15:11;2.70;;;1.00;;
53654;SDS011;39558;52.028;8.536;2022-11-03T02:17:38;3.50;;;1.48;;
53654;SDS011;39558;52.028;8.536;2022-11-03T02:20:16;3.40;;;1.13;;
53654;SDS011;39558;52.028;8.536;2022-11-03T02:22:51;3.15;;;1.30;;
53654;SDS011;39558;52.028;8.536;2022-11-03T02:25:39;3.47;;;1.15;;
53654;SDS011;39558;52.028;8.536;2022-11-03T02:28:06;2.40;;;1.20;;
53654;SDS011;39558;52.028;8.536;2022-11-03T02:33:10;5.13;;;1.40;;
53654;SDS011;39558;52.028;8.536;2022-11-03T02:35:39;3.17;;;1.35;;
53654;SDS011;39558;52.028;8.536;2022-11-03T02:38:08;3.03;;;1.20;;
53654;SDS011;39558;52.028;8.536;2022-11-03T02:40:38;3.00;;;0.90;;
53654;SDS011;39558;52.028;8.536;2022-11-03T02:43:05;2.65;;;1.17;;
53654;SDS011;39558;52.028;8.536;2022-11-03T02:45:32;1.92;;;0.75;;
53654;SDS011;39558;52.028;8.536;2022-11-03T02:47:58;3.20;;;0.98;;
53654;SDS011;39558;52.028;8.536;2022-11-03T02:50:27;4.20;;;1.10;;
53654;SDS011;39558;52.028;8.536;2022-11-03T02:52:53;3.97;;;1.48;;
53654;SDS011;39558;52.028;8.536;2022-11-03T02:58:06;2.45;;;0.95;;
53654;SDS011;39558;52.028;8.536;2022-11-03T03:00:34;3.40;;;1.27;;
53654;SDS011;39558;52.028;8.536;2022-11-03T03:03:02;2.65;;;1.20;;
53654;SDS011;39558;52.028;8.536;2022-11-03T03:05:30;3.83;;;0.95;;
53654;SDS011;39558;52.028;8.536;2022-11-03T03:08:00;2.88;;;1.42;;
53654;SDS011;39558;52.028;8.536;2022-11-03T03:10:28;3.63;;;0.90;;
53654;SDS011;39558;52.028;8.536;2022-11-03T03:12:56;2.78;;;0.98;;
53654;SDS011;39558;52.028;8.536;2022-11-03T03:15:30;3.70;;;1.02;;
53654;SDS011;39558;52.028;8.536;2022-11-03T03:18:06;2.85;;;1.23;;
53654;SDS011;39558;52.028;8.536;2022-11-03T03:20:54;4.72;;;0.90;;
53654;SDS011;39558;52.028;8.536;2022-11-03T03:23:21;3.30;;;1.10;;
53654;SDS011;39558;52.028;8.536;2022-11-03T03:25:48;2.30;;;0.90;;
53654;SDS011;39558;52.028;8.536;2022-11-03T03:28:17;2.47;;;0.98;;
53654;SDS011;39558;52.028;8.536;2022-11-03T03:30:45;3.33;;;0.85;;
53654;SDS011;39558;52.028;8.536;2022-11-03T03:33:11;2.45;;;0.93;;
53654;SDS011;39558;52.028;8.536;2022-11-03T03:35:39;2.80;;;1.10;;
53654;SDS011;39558;52.028;8.536;2022-11-03T03:38:10;2.92;;;1.20;;
53654;SDS011;39558;52.028;8.536;2022-11-03T03:40:38;2.67;;;0.98;;
53654;SDS011;39558;52.028;8.536;2022-11-03T03:43:07;3.17;;;1.10;;
53654;SDS011;39558;52.028;8.536;2022-11-03T03:45:34;2.53;;;1.08;;
53654;SDS011;39558;52.028;8.536;2022-11-03T03:48:01;3.38;;;1.02;;
53654;SDS011;39558;52.028;8.536;2022-11-03T03:50:28;4.55;;;1.25;;
53654;SDS011;39558;52.028;8.536;2022-11-03T03:52:59;1.63;;;0.95;;
53654;SDS011;39558;52.028;8.536;2022-11-03T03:55:30;1.95;;;0.75;;
53654;SDS011;39558;52.028;8.536;2022-11-03T03:57:58;2.35;;;1.00;;
53654;SDS011;39558;52.028;8.536;2022-11-03T04:00:24;2.40;;;0.75;;
53654;SDS011;39558;52.028;8.536;2022-11-03T04:02:50;2.13;;;0.95;;
53654;SDS011;39558;52.028;8.536;2022-11-03T04:05:16;3.03;;;0.80;;
53654;SDS011;39558;52.028;8.536;2022-11-03T04:07:42;2.15;;;0.90;;
53654;SDS011;39558;52.028;8.536;2022-11-03T04:10:10;3.35;;;1.10;;
53654;SDS011;39558;52.028;8.536;2022-11-03T04:12:39;2.97;;;0.80;;
53654;SDS011;39558;52.028;8.536;2022-11-03T04:15:23;3.20;;;1.02;;
53654;SDS011;39558;52.028;8.536;2022-11-03T04:18:08;1.98;;;0.98;;
53654;SDS011;39558;52.028;8.536;2022-11-03T04:20:53;4.28;;;1.00;;
53654;SDS011;39558;52.028;8.536;2022-11-03T04:23:37;2.60;;;1.02;;
53654;SDS011;39558;52.028;8.536;2022-11-03T04:26:03;2.58;;;0.85;;
53654;SDS011;39558;52.028;8.536;2022-11-03T04:28:31;3.00;;;1.17;;
53654;SDS011;39558;52.028;8.536;2022-11-03T04:30:57;4.82;;;1.10;;
53654;SDS011;39558;52.028;8.536;2022-11-03T04:33:24;2.90;;;1.00;;
53654;SDS011;39558;52.028;8.536;2022-11-03T04:35:50;5.32;;;0.95;;
53654;SDS011;39558;52.028;8.536;2022-11-03T04:40:46;2.67;;;1.13;;
53654;SDS011;39558;52.028;8.536;2022-11-03T04:43:13;3.22;;;0.93;;
53654;SDS011;39558;52.028;8.536;2022-11-03T04:45:41;1.67;;;0.60;;
53654;SDS011;39558;52.028;8.536;2022-11-03T04:48:15;2.30;;;0.80;;
53654;SDS011;39558;52.028;8.536;2022-11-03T04:50:41;3.33;;;1.00;;
53654;SDS011;39558;52.028;8.536;2022-11-03T04:53:12;3.13;;;0.98;;
53654;SDS011;39558;52.028;8.536;2022-11-03T04:55:41;2.42;;;0.77;;
53654;SDS011;39558;52.028;8.536;2022-11-03T05:00:43;2.83;;;1.10;;
53654;SDS011;39558;52.028;8.536;2022-11-03T05:03:42;2.83;;;0.88;;
53654;SDS011;39558;52.028;8.536;2022-11-03T05:06:08;2.30;;;0.98;;
53654;SDS011;39558;52.028;8.536;2022-11-03T05:08:34;2.42;;;0.85;;
53654;SDS011;39558;52.028;8.536;2022-11-03T05:11:00;4.03;;;1.15;;
53654;SDS011;39558;52.028;8.536;2022-11-03T05:13:30;1.33;;;0.50;;
53654;SDS011;39558;52.028;8.536;2022-11-03T05:16:00;3.03;;;1.63;;
53654;SDS011;39558;52.028;8.536;2022-11-03T05:18:28;1.85;;;0.90;;
53654;SDS011;39558;52.028;8.536;2022-11-03T05:20:57;2.78;;;1.02;;
53654;SDS011;39558;52.028;8.536;2022-11-03T05:23:24;2.17;;;1.00;;
53654;SDS011;39558;52.028;8.536;2022-11-03T05:25:51;2.30;;;0.80;;
53654;SDS011;39558;52.028;8.536;2022-11-03T05:30:44;2.22;;;0.75;;
53654;SDS011;39558;52.028;8.536;2022-11-03T05:33:14;2.22;;;0.75;;
53654;SDS011;39558;52.028;8.536;2022-11-03T05:35:40;2.47;;;0.70;;
53654;SDS011;39558;52.028;8.536;2022-11-03T05:38:09;2.70;;;1.35;;
53654;SDS011;39558;52.028;8.536;2022-11-03T05:40:36;2.70;;;1.05;;
53654;SDS011;39558;52.028;8.536;2022-11-03T05:43:02;1.60;;;0.93;;
53654;SDS011;39558;52.028;8.536;2022-11-03T05:45:29;2.97;;;0.90;;
53654;SDS011;39558;52.028;8.536;2022-11-03T05:47:56;3.20;;;0.85;;
53654;SDS011;39558;52.028;8.536;2022-11-03T05:50:29;2.53;;;1.00;;
53654;SDS011;39558;52.028;8.536;2022-11-03T05:52:58;2.47;;;0.85;;
53654;SDS011;39558;52.028;8.536;2022-11-03T05:55:32;2.03;;;0.93;;
53654;SDS011;39558;52.028;8.536;2022-11-03T05:57:59;1.83;;;0.80;;
53654;SDS011;39558;52.028;8.536;2022-11-03T06:00:30;2.42;;;0.93;;
53654;SDS011;39558;52.028;8.536;2022-11-03T06:02:56;3.85;;;0.98;;
53654;SDS011;39558;52.028;8.536;2022-11-03T06:05:23;1.60;;;0.65;;
53654;SDS011;39558;52.028;8.536;2022-11-03T06:07:50;1.88;;;0.75;;
53654;SDS011;39558;52.028;8.536;2022-11-03T06:10:23;2.05;;;0.82;;
53654;SDS011;39558;52.028;8.536;2022-11-03T06:12:49;2.15;;;0.82;;
53654;SDS011;39558;52.028;8.536;2022-11-03T06:15:21;2.33;;;0.80;;
53654;SDS011;39558;52.028;8.536;2022-11-03T06:17:49;2.67;;;1.10;;
53654;SDS011;39558;52.028;8.536;2022-11-03T06:20:15;2.17;;;0.98;;
53654;SDS011;39558;52.028;8.536;2022-11-03T06:22:43;2.85;;;1.00;;
53654;SDS011;39558;52.028;8.536;2022-11-03T06:27:35;3.13;;;1.08;;
53654;SDS011;39558;52.028;8.536;2022-11-03T06:30:02;2.47;;;1.50;;
53654;SDS011;39558;52.028;8.536;2022-11-03T06:32:35;2.30;;;0.82;;
53654;SDS011;39558;52.028;8.536;2022-11-03T06:35:01;2.53;;;0.98;;
53654;SDS011;39558;52.028;8.536;2022-11-03T06:37:31;2.65;;;1.30;;
53654;SDS011;39558;52.028;8.536;2022-11-03T06:42:35;2.60;;;1.10;;
53654;SDS011;39558;52.028;8.536;2022-11-03T06:45:11;3.10;;;1.30;;
53654;SDS011;39558;52.028;8.536;2022-11-03T06:47:37;2.97;;;1.10;;
53654;SDS011;39558;52.028;8.536;2022-11-03T06:52:49;2.90;;;1.52;;
53654;SDS011;39558;52.028;8.536;2022-11-03T06:55:23;2.60;;;1.00;;
53654;SDS011;39558;52.028;8.536;2022-11-03T06:57:50;3.13;;;1.20;;
53654;SDS011;39558;52.028;8.536;2022-11-03T07:00:28;4.13;;;1.10;;
53654;SDS011;39558;52.028;8.536;2022-11-03T07:05:32;2.63;;;1.17;;
53654;SDS011;39558;52.028;8.536;2022-11-03T07:07:59;6.07;;;1.67;;
53654;SDS011;39558;52.028;8.536;2022-11-03T07:10:28;2.47;;;1.20;;
53654;SDS011;39558;52.028;8.536;2022-11-03T07:12:55;3.25;;;1.13;;
53654;SDS011;39558;52.028;8.536;2022-11-03T07:15:29;3.90;;;0.80;;
53654;SDS011;39558;52.028;8.536;2022-11-03T07:17:57;3.70;;;1.20;;
53654;SDS011;39558;52.028;8.536;2022-11-03T07:20:23;5.22;;;1.52;;
53654;SDS011;39558;52.028;8.536;2022-11-03T07:22:49;3.33;;;1.17;;
53654;SDS011;39558;52.028;8.536;2022-11-03T07:25:17;3.95;;;1.30;;
53654;SDS011;39558;52.028;8.536;2022-11-03T07:27:44;3.78;;;1.35;;
53654;SDS011;39558;52.028;8.536;2022-11-03T07:30:13;3.10;;;1.20;;
53654;SDS011;39558;52.028;8.536;2022-11-03T07:32:40;4.95;;;1.33;;
53654;SDS011;39558;52.028;8.536;2022-11-03T07:37:42;3.08;;;1.50;;
53654;SDS011;39558;52.028;8.536;2022-11-03T07:40:12;2.47;;;1.23;;
53654;SDS011;39558;52.028;8.536;2022-11-03T07:45:08;3.47;;;1.15;;
53654;SDS011;39558;52.028;8.536;2022-11-03T07:47:50;3.03;;;1.00;;
53654;SDS011;39558;52.028;8.536;2022-11-03T07:50:16;2.40;;;0.90;;
53654;SDS011;39558;52.028;8.536;2022-11-03T07:52:42;5.93;;;1.33;;
53654;SDS011;39558;52.028;8.536;2022-11-03T07:55:09;5.32;;;1.58;;
53654;SDS011;39558;52.028;8.536;2022-11-03T07:57:35;9.07;;;2.33;;
53654;SDS011;39558;52.028;8.536;2022-11-03T08:00:03;8.48;;;2.75;;
53654;SDS011;39558;52.028;8.536;2022-11-03T08:02:33;8.40;;;2.13;;
53654;SDS011;39558;52.028;8.536;2022-11-03T08:05:00;7.30;;;2.13;;
53654;SDS011;39558;52.028;8.536;2022-11-03T08:07:27;8.43;;;1.95;;
53654;SDS011;39558;52.028;8.536;2022-11-03T08:09:54;8.27;;;2.17;;
53654;SDS011;39558;52.028;8.536;2022-11-03T08:12:20;7.80;;;1.60;;
53654;SDS011;39558;52.028;8.536;2022-11-03T08:14:46;8.63;;;1.70;;
53654;SDS011;39558;52.028;8.536;2022-11-03T08:17:12;4.85;;;1.40;;
53654;SDS011;39558;52.028;8.536;2022-11-03T08:19:38;4.95;;;1.13;;
53654;SDS011;39558;52.028;8.536;2022-11-03T08:22:04;3.88;;;1.50;;
53654;SDS011;39558;52.028;8.536;2022-11-03T08:24:30;4.00;;;1.17;;
53654;SDS011;39558;52.028;8.536;2022-11-03T08:26:56;5.28;;;1.77;;
53654;SDS011;39558;52.028;8.536;2022-11-03T08:29:22;2.53;;;1.00;;
53654;SDS011;39558;52.028;8.536;2022-11-03T08:31:53;4.65;;;1.33;;
53654;SDS011;39558;52.028;8.536;2022-11-03T08:34:19;4.43;;;1.10;;
53654;SDS011;39558;52.028;8.536;2022-11-03T08:36:45;2.70;;;0.90;;
53654;SDS011;39558;52.028;8.536;2022-11-03T08:39:10;3.78;;;1.08;;
53654;SDS011;39558;52.028;8.536;2022-11-03T08:41:36;2.70;;;0.98;;
53654;SDS011;39558;52.028;8.536;2022-11-03T08:44:02;2.70;;;0.80;;
53654;SDS011;39558;52.028;8.536;2022-11-03T08:46:28;2.13;;;1.00;;
53654;SDS011;39558;52.028;8.536;2022-11-03T08:48:54;2.97;;;0.88;;
53654;SDS011;39558;52.028;8.536;2022-11-03T08:51:20;4.53;;;0.95;;
53654;SDS011;39558;52.028;8.536;2022-11-03T08:53:46;4.43;;;1.13;;
53654;SDS011;39558;52.028;8.536;2022-11-03T08:56:17;5.22;;;1.00;;
53654;SDS011;39558;52.028;8.536;2022-11-03T08:58:44;4.55;;;1.10;;
53654;SDS011;39558;52.028;8.536;2022-11-03T09:01:10;3.55;;;1.27;;
53654;SDS011;39558;52.028;8.536;2022-11-03T09:03:36;2.20;;;0.90;;
53654;SDS011;39558;52.028;8.536;2022-11-03T09:06:02;3.55;;;1.95;;
53654;SDS011;39558;52.028;8.536;2022-11-03T09:08:28;3.50;;;0.90;;
53654;SDS011;39558;52.028;8.536;2022-11-03T09:10:54;1.48;;;0.68;;
53654;SDS011;39558;52.028;8.536;2022-11-03T09:13:20;2.63;;;0.80;;
53654;SDS011;39558;52.028;8.536;2022-11-03T09:15:46;3.17;;;1.08;;
53654;SDS011;39558;52.028;8.536;2022-11-03T09:18:11;2.38;;;0.93;;
53654;SDS011;39558;52.028;8.536;2022-11-03T09:20:37;4.60;;;1.00;;
53654;SDS011;39558;52.028;8.536;2022-11-03T09:23:04;4.40;;;0.95;;
53654;SDS011;39558;52.028;8.536;2022-11-03T09:25:30;4.72;;;1.20;;
53654;SDS011;39558;52.028;8.536;2022-11-03T09:27:56;4.50;;;1.00;;
53654;SDS011;39558;52.028;8.536;2022-11-03T09:30:22;4.30;;;0.88;;
53654;SDS011;39558;52.028;8.536;2022-11-03T09:32:48;4.80;;;1.40;;
53654;SDS011;39558;52.028;8.536;2022-11-03T09:35:13;1.35;;;0.63;;
53654;SDS011;39558;52.028;8.536;2022-11-03T09:37:40;3.15;;;0.90;;
53654;SDS011;39558;52.028;8.536;2022-11-03T09:40:07;3.08;;;1.35;;
53654;SDS011;39558;52.028;8.536;2022-11-03T09:42:33;3.25;;;1.30;;
53654;SDS011;39558;52.028;8.536;2022-11-03T09:45:01;2.13;;;1.02;;
53654;SDS011;39558;52.028;8.536;2022-11-03T09:47:32;2.78;;;1.00;;
53654;SDS011;39558;52.028;8.536;2022-11-03T09:52:24;3.00;;;0.73;;
53654;SDS011;39558;52.028;8.536;2022-11-03T09:54:51;2.50;;;0.60;;
53654;SDS011;39558;52.028;8.536;2022-11-03T09:57:19;3.65;;;0.80;;
53654;SDS011;39558;52.028;8.536;2022-11-03T09:59:46;4.78;;;1.02;;
53654;SDS011;39558;52.028;8.536;2022-11-03T10:02:20;1.98;;;0.70;;
53654;SDS011;39558;52.028;8.536;2022-11-03T10:04:46;3.00;;;0.98;;
53654;SDS011;39558;52.028;8.536;2022-11-03T10:07:12;2.30;;;0.85;;
53654;SDS011;39558;52.028;8.536;2022-11-03T10:09:41;3.00;;;0.82;;
53654;SDS011;39558;52.028;8.536;2022-11-03T10:12:08;2.03;;;0.77;;
53654;SDS011;39558;52.028;8.536;2022-11-03T10:14:34;2.92;;;1.15;;
53654;SDS011;39558;52.028;8.536;2022-11-03T10:17:00;2.85;;;1.55;;
53654;SDS011;39558;52.028;8.536;2022-11-03T10:19:26;2.28;;;0.80;;
53654;SDS011;39558;52.028;8.536;2022-11-03T10:21:52;2.45;;;0.80;;
53654;SDS011;39558;52.028;8.536;2022-11-03T10:24:18;1.58;;;0.70;;
53654;SDS011;39558;52.028;8.536;2022-11-03T10:26:51;3.67;;;0.88;;
53654;SDS011;39558;52.028;8.536;2022-11-03T10:29:19;2.88;;;1.05;;
53654;SDS011;39558;52.028;8.536;2022-11-03T10:31:46;2.65;;;0.90;;
53654;SDS011;39558;52.028;8.536;2022-11-03T10:34:22;2.88;;;0.95;;
53654;SDS011;39558;52.028;8.536;2022-11-03T10:36:48;2.03;;;0.93;;
53654;SDS011;39558;52.028;8.536;2022-11-03T10:39:28;2.38;;;0.80;;
53654;SDS011;39558;52.028;8.536;2022-11-03T10:41:58;2.40;;;0.98;;
53654;SDS011;39558;52.028;8.536;2022-11-03T10:44:27;5.05;;;1.10;;
53654;SDS011;39558;52.028;8.536;2022-11-03T10:46:55;1.92;;;0.80;;
53654;SDS011;39558;52.028;8.536;2022-11-03T10:49:22;3.33;;;0.73;;
53654;SDS011;39558;52.028;8.536;2022-11-03T10:51:52;2.75;;;0.90;;
53654;SDS011;39558;52.028;8.536;2022-11-03T10:54:22;2.40;;;0.70;;
53654;SDS011;39558;52.028;8.536;2022-11-03T10:56:49;1.17;;;0.52;;
53654;SDS011;39558;52.028;8.536;2022-11-03T10:59:19;1.63;;;0.60;;
53654;SDS011;39558;52.028;8.536;2022-11-03T11:04:15;2.60;;;0.65;;
53654;SDS011;39558;52.028;8.536;2022-11-03T11:06:41;4.20;;;1.17;;
53654;SDS011;39558;52.028;8.536;2022-11-03T11:09:08;2.60;;;0.80;;
53654;SDS011;39558;52.028;8.536;2022-11-03T11:11:34;2.45;;;0.70;;
53654;SDS011;39558;52.028;8.536;2022-11-03T11:14:19;1.77;;;0.60;;
53654;SDS011;39558;52.028;8.536;2022-11-03T11:16:48;1.98;;;0.50;;
53654;SDS011;39558;52.028;8.536;2022-11-03T11:19:14;2.33;;;0.77;;
53654;SDS011;39558;52.028;8.536;2022-11-03T11:24:09;3.72;;;0.50;;
53654;SDS011;39558;52.028;8.536;2022-11-03T11:26:36;1.77;;;0.40;;
53654;SDS011;39558;52.028;8.536;2022-11-03T11:31:38;1.85;;;0.63;;
53654;SDS011;39558;52.028;8.536;2022-11-03T11:36:39;2.42;;;0.50;;
53654;SDS011;39558;52.028;8.536;2022-11-03T11:42:05;2.35;;;0.90;;
53654;SDS011;39558;52.028;8.536;2022-11-03T11:45:13;1.48;;;0.55;;
53654;SDS011;39558;52.028;8.536;2022-11-03T11:49:47;2.75;;;0.60;;
53654;SDS011;39558;52.028;8.536;2022-11-03T11:52:14;1.70;;;0.50;;
53654;SDS011;39558;52.028;8.536;2022-11-03T11:54:40;2.50;;;0.88;;
53654;SDS011;39558;52.028;8.536;2022-11-03T11:57:17;2.13;;;0.70;;
53654;SDS011;39558;52.028;8.536;2022-11-03T11:59:44;1.65;;;0.68;;
53654;SDS011;39558;52.028;8.536;2022-11-03T12:02:15;1.48;;;0.70;;
53654;SDS011;39558;52.028;8.536;2022-11-03T12:04:45;1.80;;;0.63;;
53654;SDS011;39558;52.028;8.536;2022-11-03T12:07:14;0.90;;;0.40;;
53654;SDS011;39558;52.028;8.536;2022-11-03T12:09:40;1.10;;;0.55;;
53654;SDS011;39558;52.028;8.536;2022-11-03T12:12:09;1.70;;;0.50;;
53654;SDS011;39558;52.028;8.536;2022-11-03T12:14:35;2.47;;;0.70;;
53654;SDS011;39558;52.028;8.536;2022-11-03T12:19:49;1.17;;;0.35;;
53654;SDS011;39558;52.028;8.536;2022-11-03T12:24:55;3.15;;;0.60;;
53654;SDS011;39558;52.028;8.536;2022-11-03T12:29:53;1.95;;;0.38;;
53654;SDS011;39558;52.028;8.536;2022-11-03T12:32:20;2.10;;;0.75;;
53654;SDS011;39558;52.028;8.536;2022-11-03T12:34:46;2.88;;;1.02;;
53654;SDS011;39558;52.028;8.536;2022-11-03T12:37:12;1.50;;;0.50;;
53654;SDS011;39558;52.028;8.536;2022-11-03T12:39:37;2.45;;;0.73;;
53654;SDS011;39558;52.028;8.536;2022-11-03T12:42:04;1.10;;;0.30;;
53654;SDS011;39558;52.028;8.536;2022-11-03T12:44:30;1.27;;;0.70;;
53654;SDS011;39558;52.028;8.536;2022-11-03T12:46:56;2.58;;;0.82;;
53654;SDS011;39558;52.028;8.536;2022-11-03T12:49:22;2.00;;;0.70;;
53654;SDS011;39558;52.028;8.536;2022-11-03T12:51:48;2.08;;;0.40;;
53654;SDS011;39558;52.028;8.536;2022-11-03T12:54:14;3.42;;;0.68;;
53654;SDS011;39558;52.028;8.536;2022-11-03T12:56:39;1.98;;;0.60;;
53654;SDS011;39558;52.028;8.536;2022-11-03T12:59:05;3.15;;;0.47;;
53654;SDS011;39558;52.028;8.536;2022-11-03T13:01:32;2.20;;;0.60;;
53654;SDS011;39558;52.028;8.536;2022-11-03T13:03:58;3.42;;;1.02;;
53654;SDS011;39558;52.028;8.536;2022-11-03T13:06:24;1.67;;;0.80;;
53654;SDS011;39558;52.028;8.536;2022-11-03T13:08:50;1.38;;;0.50;;
53654;SDS011;39558;52.028;8.536;2022-11-03T13:11:16;3.10;;;0.60;;
53654;SDS011;39558;52.028;8.536;2022-11-03T13:14:01;3.75;;;0.60;;
53654;SDS011;39558;52.028;8.536;2022-11-03T13:16:28;1.25;;;0.40;;
53654;SDS011;39558;52.028;8.536;2022-11-03T13:18:54;1.30;;;0.70;;
53654;SDS011;39558;52.028;8.536;2022-11-03T13:21:20;1.65;;;0.40;;
53654;SDS011;39558;52.028;8.536;2022-11-03T13:23:46;2.42;;;0.52;;
53654;SDS011;39558;52.028;8.536;2022-11-03T13:26:12;1.75;;;0.60;;
53654;SDS011;39558;52.028;8.536;2022-11-03T13:28:38;2.13;;;0.70;;
53654;SDS011;39558;52.028;8.536;2022-11-03T13:31:04;2.28;;;0.70;;
53654;SDS011;39558;52.028;8.536;2022-11-03T13:33:30;8.32;;;1.80;;
53654;SDS011;39558;52.028;8.536;2022-11-03T13:35:56;2.20;;;0.82;;
53654;SDS011;39558;52.028;8.536;2022-11-03T13:38:23;2.65;;;0.47;;
53654;SDS011;39558;52.028;8.536;2022-11-03T13:40:48;1.40;;;0.40;;
53654;SDS011;39558;52.028;8.536;2022-11-03T13:43:14;2.90;;;0.85;;
53654;SDS011;39558;52.028;8.536;2022-11-03T13:45:40;1.33;;;0.45;;
53654;SDS011;39558;52.028;8.536;2022-11-03T13:48:06;1.42;;;0.80;;
53654;SDS011;39558;52.028;8.536;2022-11-03T13:50:32;3.78;;;0.70;;
53654;SDS011;39558;52.028;8.536;2022-11-03T13:52:59;2.05;;;0.50;;
53654;SDS011;39558;52.028;8.536;2022-11-03T13:55:25;1.45;;;0.63;;
53654;SDS011;39558;52.028;8.536;2022-11-03T13:57:51;2.70;;;0.70;;
53654;SDS011;39558;52.028;8.536;2022-11-03T14:00:17;2.38;;;0.52;;
53654;SDS011;39558;52.028;8.536;2022-11-03T14:02:43;1.77;;;0.70;;
53654;SDS011;39558;52.028;8.536;2022-11-03T14:05:09;2.45;;;0.52;;
53654;SDS011;39558;52.028;8.536;2022-11-03T14:07:37;1.55;;;0.60;;
53654;SDS011;39558;52.028;8.536;2022-11-03T14:10:03;2.85;;;0.68;;
53654;SDS011;39558;52.028;8.536;2022-11-03T14:12:29;1.50;;;0.80;;
53654;SDS011;39558;52.028;8.536;2022-11-03T14:14:56;1.35;;;0.50;;
53654;SDS011;39558;52.028;8.536;2022-11-03T14:17:22;1.77;;;0.88;;
53654;SDS011;39558;52.028;8.536;2022-11-03T14:19:48;2.05;;;0.63;;
53654;SDS011;39558;52.028;8.536;2022-11-03T14:22:14;4.63;;;1.10;;
53654;SDS011;39558;52.028;8.536;2022-11-03T14:24:40;1.50;;;0.50;;
53654;SDS011;39558;52.028;8.536;2022-11-03T14:27:06;1.88;;;0.55;;
53654;SDS011;39558;52.028;8.536;2022-11-03T14:29:32;1.38;;;0.55;;
53654;SDS011;39558;52.028;8.536;2022-11-03T14:31:58;1.92;;;0.50;;
53654;SDS011;39558;52.028;8.536;2022-11-03T14:34:24;2.05;;;0.50;;
53654;SDS011;39558;52.028;8.536;2022-11-03T14:36:50;1.90;;;0.63;;
53654;SDS011;39558;52.028;8.536;2022-11-03T14:39:16;1.85;;;0.52;;
53654;SDS011;39558;52.028;8.536;2022-11-03T14:41:42;1.50;;;0.43;;
53654;SDS011;39558;52.028;8.536;2022-11-03T14:44:27;2.38;;;0.80;;
53654;SDS011;39558;52.028;8.536;2022-11-03T14:46:53;1.77;;;0.52;;
53654;SDS011;39558;52.028;8.536;2022-11-03T14:49:19;3.10;;;0.50;;
53654;SDS011;39558;52.028;8.536;2022-11-03T14:51:44;2.58;;;0.80;;
53654;SDS011;39558;52.028;8.536;2022-11-03T14:54:10;1.35;;;0.75;;
53654;SDS011;39558;52.028;8.536;2022-11-03T14:56:36;3.90;;;0.65;;
53654;SDS011;39558;52.028;8.536;2022-11-03T14:59:02;2.60;;;1.00;;
53654;SDS011;39558;52.028;8.536;2022-11-03T15:01:29;2.30;;;0.55;;
53654;SDS011;39558;52.028;8.536;2022-11-03T15:03:56;1.65;;;0.73;;
53654;SDS011;39558;52.028;8.536;2022-11-03T15:06:22;2.25;;;0.80;;
53654;SDS011;39558;52.028;8.536;2022-11-03T15:08:49;2.72;;;0.95;;
53654;SDS011;39558;52.028;8.536;2022-11-03T15:11:15;3.10;;;0.98;;
53654;SDS011;39558;52.028;8.536;2022-11-03T15:13:40;3.45;;;0.80;;
53654;SDS011;39558;52.028;8.536;2022-11-03T15:16:06;1.85;;;0.70;;
53654;SDS011;39558;52.028;8.536;2022-11-03T15:18:32;4.53;;;0.75;;
53654;SDS011;39558;52.028;8.536;2022-11-03T15:20:58;2.00;;;0.70;;
53654;SDS011;39558;52.028;8.536;2022-11-03T15:23:26;2.78;;;0.80;;
53654;SDS011;39558;52.028;8.536;2022-11-03T15:25:52;3.20;;;1.10;;
53654;SDS011;39558;52.028;8.536;2022-11-03T15:28:18;7.53;;;0.75;;
53654;SDS011;39558;52.028;8.536;2022-11-03T15:30:45;2.17;;;0.63;;
53654;SDS011;39558;52.028;8.536;2022-11-03T15:33:12;3.25;;;0.82;;
53654;SDS011;39558;52.028;8.536;2022-11-03T15:35:38;2.33;;;0.77;;
53654;SDS011;39558;52.028;8.536;2022-11-03T15:38:04;1.83;;;0.55;;
53654;SDS011;39558;52.028;8.536;2022-11-03T15:40:29;3.95;;;1.10;;
53654;SDS011;39558;52.028;8.536;2022-11-03T15:42:57;2.72;;;0.80;;
53654;SDS011;39558;52.028;8.536;2022-11-03T15:45:22;2.83;;;1.05;;
53654;SDS011;39558;52.028;8.536;2022-11-03T15:47:49;3.72;;;0.90;;
53654;SDS011;39558;52.028;8.536;2022-11-03T15:50:15;9.05;;;1.02;;